sensor_id;sensor_type;location;lat;lon;timestamp;P1;durP1;ratioP1;P2;durP2;ratioP2
24373;SDS011;12498;50.880;12.096;2023-05-07T00:01:46;29.15;;;20.17;;
24373;SDS011;12498;50.880;12.096;2023-05-07T00:04:12;31.85;;;19.35;;
24373;SDS011;12498;50.880;12.096;2023-05-07T00:06:38;29.58;;;20.02;;
24373;SDS011;12498;50.880;12.096;2023-05-07T00:09:04;30.52;;;19.20;;
24373;SDS011;12498;50.880;12.096;2023-05-07T00:11:34;31.55;;;18.98;;
24373;SDS011;12498;50.880;12.096;2023-05-07T00:14:00;30.55;;;19.98;;
24373;SDS011;12498;50.880;12.096;2023-05-07T00:16:26;30.02;;;19.48;;
24373;SDS011;12498;50.880;12.096;2023-05-07T00:18:52;32.67;;;19.38;;
24373;SDS011;12498;50.880;12.096;2023-05-07T00:21:18;29.27;;;18.20;;
24373;SDS011;12498;50.880;12.096;2023-05-07T00:23:46;29.35;;;18.45;;
24373;SDS011;12498;50.880;12.096;2023-05-07T00:26:12;27.45;;;18.60;;
24373;SDS011;12498;50.880;12.096;2023-05-07T00:28:38;26.65;;;17.63;;
24373;SDS011;12498;50.880;12.096;2023-05-07T00:31:04;31.42;;;18.17;;
24373;SDS011;12498;50.880;12.096;2023-05-07T00:33:30;28.10;;;16.95;;
24373;SDS011;12498;50.880;12.096;2023-05-07T00:35:56;28.40;;;17.48;;
24373;SDS011;12498;50.880;12.096;2023-05-07T00:38:22;26.23;;;17.08;;
24373;SDS011;12498;50.880;12.096;2023-05-07T00:40:48;25.17;;;16.83;;
24373;SDS011;12498;50.880;12.096;2023-05-07T00:43:15;25.88;;;16.88;;
24373;SDS011;12498;50.880;12.096;2023-05-07T00:45:42;29.45;;;17.58;;
24373;SDS011;12498;50.880;12.096;2023-05-07T00:48:08;26.05;;;17.08;;
24373;SDS011;12498;50.880;12.096;2023-05-07T00:50:34;29.85;;;17.90;;
24373;SDS011;12498;50.880;12.096;2023-05-07T00:53:00;27.60;;;17.38;;
24373;SDS011;12498;50.880;12.096;2023-05-07T00:55:27;24.58;;;16.27;;
24373;SDS011;12498;50.880;12.096;2023-05-07T00:57:53;23.98;;;15.73;;
24373;SDS011;12498;50.880;12.096;2023-05-07T01:00:19;25.70;;;16.52;;
24373;SDS011;12498;50.880;12.096;2023-05-07T01:02:46;25.83;;;16.80;;
24373;SDS011;12498;50.880;12.096;2023-05-07T01:05:13;25.52;;;16.25;;
24373;SDS011;12498;50.880;12.096;2023-05-07T01:07:40;25.30;;;15.57;;
24373;SDS011;12498;50.880;12.096;2023-05-07T01:10:06;24.30;;;15.45;;
24373;SDS011;12498;50.880;12.096;2023-05-07T01:12:33;24.75;;;15.13;;
24373;SDS011;12498;50.880;12.096;2023-05-07T01:14:59;21.25;;;14.63;;
24373;SDS011;12498;50.880;12.096;2023-05-07T01:17:26;23.77;;;15.10;;
24373;SDS011;12498;50.880;12.096;2023-05-07T01:19:52;20.90;;;14.38;;
24373;SDS011;12498;50.880;12.096;2023-05-07T01:22:28;23.42;;;14.38;;
24373;SDS011;12498;50.880;12.096;2023-05-07T01:24:56;20.77;;;13.80;;
24373;SDS011;12498;50.880;12.096;2023-05-07T01:27:24;20.58;;;13.95;;
24373;SDS011;12498;50.880;12.096;2023-05-07T01:29:50;21.98;;;13.75;;
24373;SDS011;12498;50.880;12.096;2023-05-07T01:32:16;20.45;;;13.55;;
24373;SDS011;12498;50.880;12.096;2023-05-07T01:34:43;19.90;;;13.98;;
24373;SDS011;12498;50.880;12.096;2023-05-07T01:37:11;20.77;;;14.10;;
24373;SDS011;12498;50.880;12.096;2023-05-07T01:39:38;19.00;;;12.80;;
24373;SDS011;12498;50.880;12.096;2023-05-07T01:42:05;20.85;;;13.98;;
24373;SDS011;12498;50.880;12.096;2023-05-07T01:44:31;21.60;;;13.40;;
24373;SDS011;12498;50.880;12.096;2023-05-07T01:46:58;21.45;;;14.10;;
24373;SDS011;12498;50.880;12.096;2023-05-07T01:49:24;21.00;;;14.00;;
24373;SDS011;12498;50.880;12.096;2023-05-07T01:51:50;21.70;;;15.05;;
24373;SDS011;12498;50.880;12.096;2023-05-07T01:54:17;25.98;;;14.05;;
24373;SDS011;12498;50.880;12.096;2023-05-07T01:56:43;22.95;;;14.43;;
24373;SDS011;12498;50.880;12.096;2023-05-07T01:59:09;21.40;;;14.73;;
24373;SDS011;12498;50.880;12.096;2023-05-07T02:01:35;22.08;;;14.40;;
24373;SDS011;12498;50.880;12.096;2023-05-07T02:04:01;24.10;;;15.02;;
24373;SDS011;12498;50.880;12.096;2023-05-07T02:06:27;24.27;;;15.40;;
24373;SDS011;12498;50.880;12.096;2023-05-07T02:08:53;23.70;;;15.45;;
24373;SDS011;12498;50.880;12.096;2023-05-07T02:11:19;22.92;;;15.43;;
24373;SDS011;12498;50.880;12.096;2023-05-07T02:13:45;22.70;;;15.02;;
24373;SDS011;12498;50.880;12.096;2023-05-07T02:16:11;22.77;;;15.30;;
24373;SDS011;12498;50.880;12.096;2023-05-07T02:18:39;25.15;;;15.75;;
24373;SDS011;12498;50.880;12.096;2023-05-07T02:21:05;23.52;;;15.63;;
24373;SDS011;12498;50.880;12.096;2023-05-07T02:23:31;21.83;;;14.88;;
24373;SDS011;12498;50.880;12.096;2023-05-07T02:25:57;26.40;;;16.27;;
24373;SDS011;12498;50.880;12.096;2023-05-07T02:28:23;26.45;;;16.20;;
24373;SDS011;12498;50.880;12.096;2023-05-07T02:30:49;26.00;;;16.13;;
24373;SDS011;12498;50.880;12.096;2023-05-07T02:33:15;28.40;;;17.15;;
24373;SDS011;12498;50.880;12.096;2023-05-07T02:35:41;23.67;;;16.98;;
24373;SDS011;12498;50.880;12.096;2023-05-07T02:38:07;23.48;;;16.73;;
24373;SDS011;12498;50.880;12.096;2023-05-07T02:40:35;26.88;;;17.73;;
24373;SDS011;12498;50.880;12.096;2023-05-07T02:43:04;27.70;;;19.20;;
24373;SDS011;12498;50.880;12.096;2023-05-07T02:45:30;32.58;;;19.65;;
24373;SDS011;12498;50.880;12.096;2023-05-07T02:47:57;37.08;;;23.08;;
24373;SDS011;12498;50.880;12.096;2023-05-07T02:50:23;39.40;;;25.85;;
24373;SDS011;12498;50.880;12.096;2023-05-07T02:52:50;42.05;;;27.33;;
24373;SDS011;12498;50.880;12.096;2023-05-07T02:55:16;42.72;;;27.63;;
24373;SDS011;12498;50.880;12.096;2023-05-07T02:57:42;40.53;;;27.02;;
24373;SDS011;12498;50.880;12.096;2023-05-07T03:00:12;41.50;;;27.48;;
24373;SDS011;12498;50.880;12.096;2023-05-07T03:02:38;43.70;;;28.42;;
24373;SDS011;12498;50.880;12.096;2023-05-07T03:05:04;41.83;;;28.48;;
24373;SDS011;12498;50.880;12.096;2023-05-07T03:07:30;40.88;;;27.13;;
24373;SDS011;12498;50.880;12.096;2023-05-07T03:09:56;39.03;;;26.60;;
24373;SDS011;12498;50.880;12.096;2023-05-07T03:12:22;37.63;;;25.77;;
24373;SDS011;12498;50.880;12.096;2023-05-07T03:14:48;41.85;;;26.48;;
24373;SDS011;12498;50.880;12.096;2023-05-07T03:17:15;41.92;;;26.70;;
24373;SDS011;12498;50.880;12.096;2023-05-07T03:19:41;40.33;;;26.95;;
24373;SDS011;12498;50.880;12.096;2023-05-07T03:22:07;40.30;;;25.60;;
24373;SDS011;12498;50.880;12.096;2023-05-07T03:24:33;38.13;;;25.23;;
24373;SDS011;12498;50.880;12.096;2023-05-07T03:26:59;40.42;;;24.50;;
24373;SDS011;12498;50.880;12.096;2023-05-07T03:29:26;37.05;;;24.27;;
24373;SDS011;12498;50.880;12.096;2023-05-07T03:31:52;37.25;;;23.85;;
24373;SDS011;12498;50.880;12.096;2023-05-07T03:34:18;39.60;;;24.55;;
24373;SDS011;12498;50.880;12.096;2023-05-07T03:36:47;36.95;;;22.85;;
24373;SDS011;12498;50.880;12.096;2023-05-07T03:39:13;34.60;;;22.88;;
24373;SDS011;12498;50.880;12.096;2023-05-07T03:41:39;35.45;;;22.80;;
24373;SDS011;12498;50.880;12.096;2023-05-07T03:44:05;36.33;;;22.98;;
24373;SDS011;12498;50.880;12.096;2023-05-07T03:46:32;35.55;;;22.23;;
24373;SDS011;12498;50.880;12.096;2023-05-07T03:48:58;34.65;;;22.75;;
24373;SDS011;12498;50.880;12.096;2023-05-07T03:51:24;37.38;;;23.23;;
24373;SDS011;12498;50.880;12.096;2023-05-07T03:53:50;37.78;;;23.75;;
24373;SDS011;12498;50.880;12.096;2023-05-07T03:56:19;40.17;;;23.65;;
24373;SDS011;12498;50.880;12.096;2023-05-07T03:58:47;34.72;;;23.23;;
24373;SDS011;12498;50.880;12.096;2023-05-07T04:01:13;37.05;;;23.98;;
24373;SDS011;12498;50.880;12.096;2023-05-07T04:03:39;37.75;;;24.75;;
24373;SDS011;12498;50.880;12.096;2023-05-07T04:06:05;33.53;;;22.98;;
24373;SDS011;12498;50.880;12.096;2023-05-07T04:11:00;36.42;;;23.08;;
24373;SDS011;12498;50.880;12.096;2023-05-07T04:13:26;39.92;;;24.45;;
24373;SDS011;12498;50.880;12.096;2023-05-07T04:15:53;36.22;;;24.25;;
24373;SDS011;12498;50.880;12.096;2023-05-07T04:18:19;40.10;;;24.98;;
24373;SDS011;12498;50.880;12.096;2023-05-07T04:20:46;38.78;;;25.92;;
24373;SDS011;12498;50.880;12.096;2023-05-07T04:23:14;39.13;;;25.17;;
24373;SDS011;12498;50.880;12.096;2023-05-07T04:25:40;39.08;;;25.80;;
24373;SDS011;12498;50.880;12.096;2023-05-07T04:28:06;34.45;;;24.05;;
24373;SDS011;12498;50.880;12.096;2023-05-07T04:30:32;36.45;;;24.50;;
24373;SDS011;12498;50.880;12.096;2023-05-07T04:32:58;38.03;;;25.15;;
24373;SDS011;12498;50.880;12.096;2023-05-07T04:35:24;39.35;;;26.42;;
24373;SDS011;12498;50.880;12.096;2023-05-07T04:37:50;34.97;;;24.38;;
24373;SDS011;12498;50.880;12.096;2023-05-07T04:40:16;35.65;;;23.60;;
24373;SDS011;12498;50.880;12.096;2023-05-07T04:42:42;39.35;;;25.27;;
24373;SDS011;12498;50.880;12.096;2023-05-07T04:45:08;38.78;;;25.55;;
24373;SDS011;12498;50.880;12.096;2023-05-07T04:47:35;40.88;;;25.33;;
24373;SDS011;12498;50.880;12.096;2023-05-07T04:50:01;39.78;;;25.42;;
24373;SDS011;12498;50.880;12.096;2023-05-07T04:52:27;35.15;;;23.60;;
24373;SDS011;12498;50.880;12.096;2023-05-07T04:54:53;34.17;;;24.13;;
24373;SDS011;12498;50.880;12.096;2023-05-07T04:57:19;37.70;;;25.27;;
24373;SDS011;12498;50.880;12.096;2023-05-07T04:59:45;39.35;;;24.73;;
24373;SDS011;12498;50.880;12.096;2023-05-07T05:02:11;41.15;;;26.42;;
24373;SDS011;12498;50.880;12.096;2023-05-07T05:04:37;37.10;;;24.65;;
24373;SDS011;12498;50.880;12.096;2023-05-07T05:07:03;39.42;;;24.42;;
24373;SDS011;12498;50.880;12.096;2023-05-07T05:09:29;39.35;;;25.40;;
24373;SDS011;12498;50.880;12.096;2023-05-07T05:11:55;39.10;;;25.25;;
24373;SDS011;12498;50.880;12.096;2023-05-07T05:14:21;39.00;;;24.63;;
24373;SDS011;12498;50.880;12.096;2023-05-07T05:16:51;35.08;;;24.02;;
24373;SDS011;12498;50.880;12.096;2023-05-07T05:21:43;37.75;;;24.88;;
24373;SDS011;12498;50.880;12.096;2023-05-07T05:24:09;36.42;;;24.58;;
24373;SDS011;12498;50.880;12.096;2023-05-07T05:26:35;35.55;;;24.00;;
24373;SDS011;12498;50.880;12.096;2023-05-07T05:29:00;31.70;;;22.42;;
24373;SDS011;12498;50.880;12.096;2023-05-07T05:31:26;34.47;;;22.25;;
24373;SDS011;12498;50.880;12.096;2023-05-07T05:33:52;36.03;;;22.92;;
24373;SDS011;12498;50.880;12.096;2023-05-07T05:36:18;33.42;;;22.92;;
24373;SDS011;12498;50.880;12.096;2023-05-07T05:38:44;36.28;;;23.45;;
24373;SDS011;12498;50.880;12.096;2023-05-07T05:41:11;39.15;;;23.63;;
24373;SDS011;12498;50.880;12.096;2023-05-07T05:43:37;34.53;;;22.90;;
24373;SDS011;12498;50.880;12.096;2023-05-07T05:46:03;36.92;;;23.58;;
24373;SDS011;12498;50.880;12.096;2023-05-07T05:48:29;35.30;;;23.58;;
24373;SDS011;12498;50.880;12.096;2023-05-07T05:50:55;36.28;;;22.65;;
24373;SDS011;12498;50.880;12.096;2023-05-07T05:53:21;32.75;;;23.27;;
24373;SDS011;12498;50.880;12.096;2023-05-07T05:55:47;33.90;;;22.73;;
24373;SDS011;12498;50.880;12.096;2023-05-07T05:58:14;33.20;;;22.95;;
24373;SDS011;12498;50.880;12.096;2023-05-07T06:00:40;36.53;;;23.38;;
24373;SDS011;12498;50.880;12.096;2023-05-07T06:03:06;40.08;;;26.73;;
24373;SDS011;12498;50.880;12.096;2023-05-07T06:05:32;38.17;;;25.35;;
24373;SDS011;12498;50.880;12.096;2023-05-07T06:07:58;38.53;;;25.67;;
24373;SDS011;12498;50.880;12.096;2023-05-07T06:10:26;33.95;;;22.85;;
24373;SDS011;12498;50.880;12.096;2023-05-07T06:12:53;32.85;;;22.13;;
24373;SDS011;12498;50.880;12.096;2023-05-07T06:15:21;34.40;;;23.60;;
24373;SDS011;12498;50.880;12.096;2023-05-07T06:17:47;32.45;;;22.38;;
24373;SDS011;12498;50.880;12.096;2023-05-07T06:20:14;34.85;;;23.58;;
24373;SDS011;12498;50.880;12.096;2023-05-07T06:22:40;34.10;;;23.13;;
24373;SDS011;12498;50.880;12.096;2023-05-07T06:25:06;35.70;;;22.45;;
24373;SDS011;12498;50.880;12.096;2023-05-07T06:27:32;29.90;;;22.35;;
24373;SDS011;12498;50.880;12.096;2023-05-07T06:29:58;31.00;;;21.55;;
24373;SDS011;12498;50.880;12.096;2023-05-07T06:32:24;31.02;;;21.33;;
24373;SDS011;12498;50.880;12.096;2023-05-07T06:34:50;36.05;;;22.30;;
24373;SDS011;12498;50.880;12.096;2023-05-07T06:37:16;29.08;;;21.27;;
24373;SDS011;12498;50.880;12.096;2023-05-07T06:39:42;36.13;;;23.60;;
24373;SDS011;12498;50.880;12.096;2023-05-07T06:42:08;29.23;;;21.27;;
24373;SDS011;12498;50.880;12.096;2023-05-07T06:44:34;40.22;;;26.85;;
24373;SDS011;12498;50.880;12.096;2023-05-07T06:47:00;32.72;;;22.70;;
24373;SDS011;12498;50.880;12.096;2023-05-07T06:49:26;35.00;;;22.85;;
24373;SDS011;12498;50.880;12.096;2023-05-07T06:51:52;32.67;;;21.40;;
24373;SDS011;12498;50.880;12.096;2023-05-07T06:54:18;32.65;;;21.48;;
24373;SDS011;12498;50.880;12.096;2023-05-07T06:56:45;30.88;;;21.98;;
24373;SDS011;12498;50.880;12.096;2023-05-07T06:59:11;30.35;;;20.58;;
24373;SDS011;12498;50.880;12.096;2023-05-07T07:01:37;44.00;;;27.50;;
24373;SDS011;12498;50.880;12.096;2023-05-07T07:04:03;34.80;;;21.75;;
24373;SDS011;12498;50.880;12.096;2023-05-07T07:06:29;31.58;;;20.80;;
24373;SDS011;12498;50.880;12.096;2023-05-07T07:08:56;28.70;;;21.08;;
24373;SDS011;12498;50.880;12.096;2023-05-07T07:11:22;29.08;;;20.13;;
24373;SDS011;12498;50.880;12.096;2023-05-07T07:13:48;29.00;;;20.05;;
24373;SDS011;12498;50.880;12.096;2023-05-07T07:16:15;25.85;;;18.42;;
24373;SDS011;12498;50.880;12.096;2023-05-07T07:18:42;32.33;;;20.42;;
24373;SDS011;12498;50.880;12.096;2023-05-07T07:21:08;29.38;;;20.58;;
24373;SDS011;12498;50.880;12.096;2023-05-07T07:23:34;28.17;;;19.55;;
24373;SDS011;12498;50.880;12.096;2023-05-07T07:26:00;31.17;;;19.80;;
24373;SDS011;12498;50.880;12.096;2023-05-07T07:28:26;31.75;;;21.70;;
24373;SDS011;12498;50.880;12.096;2023-05-07T07:30:52;32.72;;;21.85;;
24373;SDS011;12498;50.880;12.096;2023-05-07T07:33:21;28.88;;;20.33;;
24373;SDS011;12498;50.880;12.096;2023-05-07T07:35:47;27.27;;;18.38;;
24373;SDS011;12498;50.880;12.096;2023-05-07T07:38:13;26.42;;;17.92;;
24373;SDS011;12498;50.880;12.096;2023-05-07T07:40:39;27.35;;;18.35;;
24373;SDS011;12498;50.880;12.096;2023-05-07T07:43:05;25.55;;;17.95;;
24373;SDS011;12498;50.880;12.096;2023-05-07T07:45:31;22.80;;;16.30;;
24373;SDS011;12498;50.880;12.096;2023-05-07T07:47:57;23.30;;;17.00;;
24373;SDS011;12498;50.880;12.096;2023-05-07T07:50:23;22.98;;;15.45;;
24373;SDS011;12498;50.880;12.096;2023-05-07T07:52:49;18.85;;;14.30;;
24373;SDS011;12498;50.880;12.096;2023-05-07T07:55:15;20.08;;;14.05;;
24373;SDS011;12498;50.880;12.096;2023-05-07T07:57:46;23.50;;;15.75;;
24373;SDS011;12498;50.880;12.096;2023-05-07T08:00:12;25.33;;;17.73;;
24373;SDS011;12498;50.880;12.096;2023-05-07T08:02:38;21.98;;;15.63;;
24373;SDS011;12498;50.880;12.096;2023-05-07T08:05:04;20.45;;;15.10;;
24373;SDS011;12498;50.880;12.096;2023-05-07T08:07:30;23.23;;;16.30;;
24373;SDS011;12498;50.880;12.096;2023-05-07T08:09:56;23.05;;;14.95;;
24373;SDS011;12498;50.880;12.096;2023-05-07T08:12:22;19.83;;;14.88;;
24373;SDS011;12498;50.880;12.096;2023-05-07T08:14:48;23.27;;;15.80;;
24373;SDS011;12498;50.880;12.096;2023-05-07T08:17:14;25.48;;;16.92;;
24373;SDS011;12498;50.880;12.096;2023-05-07T08:19:41;28.02;;;20.40;;
24373;SDS011;12498;50.880;12.096;2023-05-07T08:22:08;30.88;;;21.80;;
24373;SDS011;12498;50.880;12.096;2023-05-07T08:24:35;26.40;;;18.27;;
24373;SDS011;12498;50.880;12.096;2023-05-07T08:27:01;22.42;;;16.45;;
24373;SDS011;12498;50.880;12.096;2023-05-07T08:29:27;21.70;;;15.40;;
24373;SDS011;12498;50.880;12.096;2023-05-07T08:31:53;21.35;;;15.30;;
24373;SDS011;12498;50.880;12.096;2023-05-07T08:34:20;25.77;;;16.98;;
24373;SDS011;12498;50.880;12.096;2023-05-07T08:36:47;19.17;;;13.82;;
24373;SDS011;12498;50.880;12.096;2023-05-07T08:39:13;20.98;;;15.05;;
24373;SDS011;12498;50.880;12.096;2023-05-07T08:41:39;32.80;;;21.33;;
24373;SDS011;12498;50.880;12.096;2023-05-07T08:44:06;23.52;;;15.60;;
24373;SDS011;12498;50.880;12.096;2023-05-07T08:46:32;20.45;;;13.70;;
24373;SDS011;12498;50.880;12.096;2023-05-07T08:48:58;22.20;;;14.30;;
24373;SDS011;12498;50.880;12.096;2023-05-07T08:51:24;20.27;;;13.95;;
24373;SDS011;12498;50.880;12.096;2023-05-07T08:53:50;20.85;;;14.70;;
24373;SDS011;12498;50.880;12.096;2023-05-07T08:56:16;23.98;;;14.80;;
24373;SDS011;12498;50.880;12.096;2023-05-07T08:58:45;20.83;;;14.70;;
24373;SDS011;12498;50.880;12.096;2023-05-07T09:01:14;17.67;;;13.15;;
24373;SDS011;12498;50.880;12.096;2023-05-07T09:03:41;17.35;;;13.18;;
24373;SDS011;12498;50.880;12.096;2023-05-07T09:06:07;18.25;;;13.38;;
24373;SDS011;12498;50.880;12.096;2023-05-07T09:08:33;23.23;;;16.23;;
24373;SDS011;12498;50.880;12.096;2023-05-07T09:10:59;25.33;;;16.65;;
24373;SDS011;12498;50.880;12.096;2023-05-07T09:13:27;19.70;;;13.65;;
24373;SDS011;12498;50.880;12.096;2023-05-07T09:15:53;18.48;;;12.90;;
24373;SDS011;12498;50.880;12.096;2023-05-07T09:18:19;18.88;;;13.30;;
24373;SDS011;12498;50.880;12.096;2023-05-07T09:20:45;17.77;;;12.48;;
24373;SDS011;12498;50.880;12.096;2023-05-07T09:23:11;17.15;;;12.52;;
24373;SDS011;12498;50.880;12.096;2023-05-07T09:25:37;18.13;;;13.02;;
24373;SDS011;12498;50.880;12.096;2023-05-07T09:28:04;20.05;;;13.38;;
24373;SDS011;12498;50.880;12.096;2023-05-07T09:30:35;21.20;;;13.40;;
24373;SDS011;12498;50.880;12.096;2023-05-07T09:33:01;19.52;;;13.90;;
24373;SDS011;12498;50.880;12.096;2023-05-07T09:35:28;19.80;;;13.50;;
24373;SDS011;12498;50.880;12.096;2023-05-07T09:37:55;16.73;;;12.88;;
24373;SDS011;12498;50.880;12.096;2023-05-07T09:40:28;19.63;;;13.18;;
24373;SDS011;12498;50.880;12.096;2023-05-07T09:42:54;17.58;;;12.88;;
24373;SDS011;12498;50.880;12.096;2023-05-07T09:45:27;18.88;;;12.88;;
24373;SDS011;12498;50.880;12.096;2023-05-07T09:47:54;19.58;;;13.27;;
24373;SDS011;12498;50.880;12.096;2023-05-07T09:50:21;16.75;;;12.70;;
24373;SDS011;12498;50.880;12.096;2023-05-07T09:52:47;20.38;;;14.63;;
24373;SDS011;12498;50.880;12.096;2023-05-07T09:55:14;18.98;;;13.63;;
24373;SDS011;12498;50.880;12.096;2023-05-07T09:57:40;30.27;;;19.10;;
24373;SDS011;12498;50.880;12.096;2023-05-07T10:00:07;29.08;;;20.80;;
24373;SDS011;12498;50.880;12.096;2023-05-07T10:02:34;16.60;;;11.88;;
24373;SDS011;12498;50.880;12.096;2023-05-07T10:05:01;17.33;;;11.63;;
24373;SDS011;12498;50.880;12.096;2023-05-07T10:07:28;15.68;;;11.48;;
24373;SDS011;12498;50.880;12.096;2023-05-07T10:09:54;13.82;;;10.85;;
24373;SDS011;12498;50.880;12.096;2023-05-07T10:12:20;14.27;;;11.15;;
24373;SDS011;12498;50.880;12.096;2023-05-07T10:14:46;22.02;;;12.80;;
24373;SDS011;12498;50.880;12.096;2023-05-07T10:17:13;19.80;;;12.20;;
24373;SDS011;12498;50.880;12.096;2023-05-07T10:19:39;15.25;;;11.07;;
24373;SDS011;12498;50.880;12.096;2023-05-07T10:22:06;14.10;;;10.65;;
24373;SDS011;12498;50.880;12.096;2023-05-07T10:24:32;15.38;;;11.77;;
24373;SDS011;12498;50.880;12.096;2023-05-07T10:27:03;17.23;;;11.52;;
24373;SDS011;12498;50.880;12.096;2023-05-07T10:32:01;13.02;;;10.00;;
24373;SDS011;12498;50.880;12.096;2023-05-07T10:34:32;16.60;;;10.90;;
24373;SDS011;12498;50.880;12.096;2023-05-07T10:37:00;13.57;;;10.65;;
24373;SDS011;12498;50.880;12.096;2023-05-07T10:39:26;14.18;;;10.48;;
24373;SDS011;12498;50.880;12.096;2023-05-07T10:41:53;13.35;;;10.52;;
24373;SDS011;12498;50.880;12.096;2023-05-07T10:44:28;13.68;;;10.73;;
24373;SDS011;12498;50.880;12.096;2023-05-07T10:49:34;12.77;;;10.57;;
24373;SDS011;12498;50.880;12.096;2023-05-07T10:54:44;13.32;;;9.85;;
24373;SDS011;12498;50.880;12.096;2023-05-07T10:59:55;12.13;;;9.07;;
24373;SDS011;12498;50.880;12.096;2023-05-07T11:02:21;15.57;;;10.45;;
24373;SDS011;12498;50.880;12.096;2023-05-07T11:07:32;11.43;;;9.32;;
24373;SDS011;12498;50.880;12.096;2023-05-07T11:09:59;13.10;;;8.80;;
24373;SDS011;12498;50.880;12.096;2023-05-07T11:15:11;10.85;;;8.82;;
24373;SDS011;12498;50.880;12.096;2023-05-07T11:17:53;11.80;;;9.32;;
24373;SDS011;12498;50.880;12.096;2023-05-07T11:20:20;11.93;;;8.95;;
24373;SDS011;12498;50.880;12.096;2023-05-07T11:22:46;12.75;;;9.25;;
24373;SDS011;12498;50.880;12.096;2023-05-07T11:25:18;13.00;;;9.07;;
24373;SDS011;12498;50.880;12.096;2023-05-07T11:27:45;12.20;;;8.43;;
24373;SDS011;12498;50.880;12.096;2023-05-07T11:30:16;11.25;;;8.35;;
24373;SDS011;12498;50.880;12.096;2023-05-07T11:32:43;10.05;;;8.00;;
24373;SDS011;12498;50.880;12.096;2023-05-07T11:35:12;10.85;;;8.48;;
24373;SDS011;12498;50.880;12.096;2023-05-07T11:37:38;9.93;;;7.53;;
24373;SDS011;12498;50.880;12.096;2023-05-07T11:40:05;10.90;;;7.78;;
24373;SDS011;12498;50.880;12.096;2023-05-07T11:42:35;18.85;;;14.18;;
24373;SDS011;12498;50.880;12.096;2023-05-07T11:45:06;12.85;;;8.38;;
24373;SDS011;12498;50.880;12.096;2023-05-07T11:47:32;10.55;;;8.30;;
24373;SDS011;12498;50.880;12.096;2023-05-07T11:50:05;11.85;;;9.23;;
24373;SDS011;12498;50.880;12.096;2023-05-07T11:52:32;11.85;;;8.95;;
24373;SDS011;12498;50.880;12.096;2023-05-07T11:54:59;12.73;;;8.55;;
24373;SDS011;12498;50.880;12.096;2023-05-07T11:57:25;11.70;;;7.47;;
24373;SDS011;12498;50.880;12.096;2023-05-07T11:59:58;8.75;;;6.90;;
24373;SDS011;12498;50.880;12.096;2023-05-07T12:02:26;9.90;;;7.30;;
24373;SDS011;12498;50.880;12.096;2023-05-07T12:04:53;11.05;;;6.78;;
24373;SDS011;12498;50.880;12.096;2023-05-07T12:07:19;12.10;;;10.13;;
24373;SDS011;12498;50.880;12.096;2023-05-07T12:09:46;9.52;;;7.30;;
24373;SDS011;12498;50.880;12.096;2023-05-07T12:12:12;8.50;;;6.55;;
24373;SDS011;12498;50.880;12.096;2023-05-07T12:14:43;11.43;;;7.68;;
24373;SDS011;12498;50.880;12.096;2023-05-07T12:19:35;10.50;;;8.23;;
24373;SDS011;12498;50.880;12.096;2023-05-07T12:22:02;7.97;;;6.85;;
24373;SDS011;12498;50.880;12.096;2023-05-07T12:24:28;9.77;;;7.20;;
24373;SDS011;12498;50.880;12.096;2023-05-07T12:26:54;9.02;;;7.72;;
24373;SDS011;12498;50.880;12.096;2023-05-07T12:29:23;8.98;;;7.13;;
24373;SDS011;12498;50.880;12.096;2023-05-07T12:31:49;8.85;;;6.93;;
24373;SDS011;12498;50.880;12.096;2023-05-07T12:34:15;9.63;;;6.60;;
24373;SDS011;12498;50.880;12.096;2023-05-07T12:36:41;11.80;;;8.30;;
24373;SDS011;12498;50.880;12.096;2023-05-07T12:39:08;13.40;;;9.68;;
24373;SDS011;12498;50.880;12.096;2023-05-07T12:41:54;8.18;;;6.28;;
24373;SDS011;12498;50.880;12.096;2023-05-07T12:44:23;7.47;;;6.18;;
24373;SDS011;12498;50.880;12.096;2023-05-07T12:46:50;7.88;;;6.32;;
24373;SDS011;12498;50.880;12.096;2023-05-07T12:49:16;8.75;;;6.45;;
24373;SDS011;12498;50.880;12.096;2023-05-07T12:51:43;7.95;;;6.22;;
24373;SDS011;12498;50.880;12.096;2023-05-07T12:54:09;7.10;;;5.95;;
24373;SDS011;12498;50.880;12.096;2023-05-07T12:56:35;8.45;;;6.00;;
24373;SDS011;12498;50.880;12.096;2023-05-07T12:59:02;6.85;;;5.70;;
24373;SDS011;12498;50.880;12.096;2023-05-07T13:01:29;7.63;;;5.05;;
24373;SDS011;12498;50.880;12.096;2023-05-07T13:03:55;6.85;;;5.43;;
24373;SDS011;12498;50.880;12.096;2023-05-07T13:06:21;7.82;;;5.65;;
24373;SDS011;12498;50.880;12.096;2023-05-07T13:08:47;7.55;;;6.18;;
24373;SDS011;12498;50.880;12.096;2023-05-07T13:11:14;9.50;;;7.05;;
24373;SDS011;12498;50.880;12.096;2023-05-07T13:13:40;6.97;;;5.68;;
24373;SDS011;12498;50.880;12.096;2023-05-07T13:16:07;6.40;;;5.35;;
24373;SDS011;12498;50.880;12.096;2023-05-07T13:18:34;6.72;;;5.07;;
24373;SDS011;12498;50.880;12.096;2023-05-07T13:21:00;5.53;;;4.40;;
24373;SDS011;12498;50.880;12.096;2023-05-07T13:23:27;5.00;;;4.50;;
24373;SDS011;12498;50.880;12.096;2023-05-07T13:25:53;5.03;;;3.60;;
24373;SDS011;12498;50.880;12.096;2023-05-07T13:28:20;4.43;;;3.63;;
24373;SDS011;12498;50.880;12.096;2023-05-07T13:30:47;5.20;;;3.53;;
24373;SDS011;12498;50.880;12.096;2023-05-07T13:33:13;4.05;;;3.30;;
24373;SDS011;12498;50.880;12.096;2023-05-07T13:35:40;3.92;;;3.53;;
24373;SDS011;12498;50.880;12.096;2023-05-07T13:38:06;4.55;;;4.13;;
24373;SDS011;12498;50.880;12.096;2023-05-07T13:40:33;5.30;;;3.83;;
24373;SDS011;12498;50.880;12.096;2023-05-07T13:42:59;4.20;;;3.80;;
24373;SDS011;12498;50.880;12.096;2023-05-07T13:45:28;5.60;;;4.45;;
24373;SDS011;12498;50.880;12.096;2023-05-07T13:47:54;5.03;;;4.50;;
24373;SDS011;12498;50.880;12.096;2023-05-07T13:50:20;9.60;;;8.00;;
24373;SDS011;12498;50.880;12.096;2023-05-07T13:52:46;6.03;;;4.60;;
24373;SDS011;12498;50.880;12.096;2023-05-07T13:55:18;8.60;;;5.32;;
24373;SDS011;12498;50.880;12.096;2023-05-07T13:57:45;11.32;;;6.38;;
24373;SDS011;12498;50.880;12.096;2023-05-07T14:00:11;7.07;;;5.40;;
24373;SDS011;12498;50.880;12.096;2023-05-07T14:02:38;8.02;;;5.72;;
24373;SDS011;12498;50.880;12.096;2023-05-07T14:05:04;8.95;;;6.90;;
24373;SDS011;12498;50.880;12.096;2023-05-07T14:07:30;6.05;;;5.45;;
24373;SDS011;12498;50.880;12.096;2023-05-07T14:09:56;5.63;;;5.05;;
24373;SDS011;12498;50.880;12.096;2023-05-07T14:12:23;6.45;;;5.75;;
24373;SDS011;12498;50.880;12.096;2023-05-07T14:14:49;6.35;;;5.57;;
24373;SDS011;12498;50.880;12.096;2023-05-07T14:17:18;8.00;;;5.45;;
24373;SDS011;12498;50.880;12.096;2023-05-07T14:22:12;6.40;;;5.75;;
24373;SDS011;12498;50.880;12.096;2023-05-07T14:24:38;8.02;;;6.10;;
24373;SDS011;12498;50.880;12.096;2023-05-07T14:27:04;8.25;;;6.28;;
24373;SDS011;12498;50.880;12.096;2023-05-07T14:29:30;11.15;;;8.25;;
24373;SDS011;12498;50.880;12.096;2023-05-07T14:31:56;9.18;;;6.40;;
24373;SDS011;12498;50.880;12.096;2023-05-07T14:34:22;8.95;;;6.55;;
24373;SDS011;12498;50.880;12.096;2023-05-07T14:36:48;9.52;;;6.07;;